Yumenzhen, China
Current Conditions -  °F | °C
As of 5:00 PM on Monday 24 Nov 2014 (Local Time) from ZLLL Reporting Station
Scattered Clouds Scattered Clouds  
Wind Chill: 30°   Ceiling: Unl
Heat Index: 36°   Visibility: 6mi
Dew Point: 28°   Wind: 7mph
Humidity: 75%   Direction: 170°S
Pressure: 30.09"   Gusts: NA
Location:  40.27°N, 97.03°E
Report Text: ZLLL 240900Z 17003MPS 9999 SCT020 02/M02 Q1019 NOSIG
Loading
Personal Weather Stations






























Interactive Weather Map New forecast layout! Learn more

10-Day Weather Forecast

Advertisements
Track Severe Weather on mobile